createdAt,value
2022-11-23T00:02:01.766Z,2.08
2022-11-23T00:04:32.677Z,2.28
2022-11-23T00:07:03.643Z,2.10
2022-11-23T00:09:32.100Z,2.10
2022-11-23T00:12:00.541Z,2.20
2022-11-23T00:14:28.862Z,1.80
2022-11-23T00:16:57.105Z,2.08
2022-11-23T00:19:27.628Z,1.95
2022-11-23T00:22:01.511Z,2.00
2022-11-23T00:24:29.885Z,2.00
2022-11-23T00:26:58.190Z,1.92
2022-11-23T00:29:29.831Z,1.80
2022-11-23T00:31:58.341Z,2.13
2022-11-23T00:34:26.568Z,2.10
2022-11-23T00:36:54.870Z,2.03
2022-11-23T00:39:29.461Z,2.05
2022-11-23T00:42:00.866Z,1.95
2022-11-23T00:44:32.115Z,2.25
2022-11-23T00:47:01.230Z,2.30
2022-11-23T00:49:32.193Z,2.05
2022-11-23T00:52:03.471Z,2.03
2022-11-23T00:54:31.791Z,1.92
2022-11-23T00:57:03.290Z,2.10
2022-11-23T00:59:32.004Z,2.03
2022-11-23T01:02:00.640Z,1.92
2022-11-23T01:04:34.123Z,2.20
2022-11-23T01:07:05.087Z,2.20
2022-11-23T01:09:37.971Z,1.83
2022-11-23T01:12:06.535Z,1.95
2022-11-23T01:14:35.022Z,2.10
2022-11-23T01:17:03.942Z,2.20
2022-11-23T01:19:32.455Z,2.17
2022-11-23T01:22:05.702Z,2.65
2022-11-23T01:24:36.821Z,3.30
2022-11-23T01:27:07.551Z,3.40
2022-11-23T01:29:36.856Z,3.35
2022-11-23T01:32:05.197Z,3.10
2022-11-23T01:34:39.596Z,2.53
2022-11-23T01:37:10.328Z,2.63
2022-11-23T01:39:48.504Z,2.78
2022-11-23T01:42:20.868Z,3.10
2022-11-23T01:44:52.946Z,2.90
2022-11-23T01:47:28.308Z,2.83
2022-11-23T01:49:57.396Z,2.60
2022-11-23T01:52:30.381Z,2.78
2022-11-23T01:55:08.086Z,3.10
2022-11-23T01:57:49.208Z,2.78
2022-11-23T02:00:17.844Z,3.03
2022-11-23T02:03:02.476Z,2.60
2022-11-23T02:05:39.416Z,2.95
2022-11-23T02:08:14.291Z,2.90
2022-11-23T02:10:45.201Z,3.33
2022-11-23T02:13:18.507Z,4.25
2022-11-23T02:15:52.664Z,3.90
2022-11-23T02:18:29.861Z,3.53
2022-11-23T02:21:10.281Z,3.30
2022-11-23T02:23:58.808Z,3.28
2022-11-23T02:26:38.306Z,3.03
2022-11-23T02:29:12.436Z,3.30
2022-11-23T02:31:42.568Z,3.30
2022-11-23T02:34:16.461Z,3.08
2022-11-23T02:37:03.466Z,2.85
2022-11-23T02:39:43.375Z,2.72
2022-11-23T02:42:15.235Z,3.17
2022-11-23T02:45:20.216Z,2.92
2022-11-23T02:47:50.185Z,3.03
2022-11-23T02:50:18.607Z,4.10
2022-11-23T02:52:46.893Z,4.00
2022-11-23T02:55:17.681Z,5.22
2022-11-23T02:57:46.009Z,6.32
2022-11-23T03:00:20.687Z,5.60
2022-11-23T03:05:17.447Z,7.70
2022-11-23T03:07:48.956Z,6.70
2022-11-23T03:10:17.381Z,7.43
2022-11-23T03:12:46.006Z,7.30
2022-11-23T03:15:22.916Z,7.63
2022-11-23T03:17:53.606Z,6.95
2022-11-23T03:20:25.367Z,7.10
2022-11-23T03:22:56.467Z,6.10
2022-11-23T03:25:27.342Z,6.00
2022-11-23T03:28:08.441Z,6.30
2022-11-23T03:30:39.877Z,6.13
2022-11-23T03:33:08.151Z,6.43
2022-11-23T03:35:36.566Z,6.82
2022-11-23T03:38:10.982Z,7.00
2022-11-23T03:40:39.786Z,6.50
2022-11-23T03:43:13.095Z,7.07
2022-11-23T03:45:42.102Z,5.93
2022-11-23T03:48:18.832Z,6.88
2022-11-23T03:50:50.196Z,6.22
2022-11-23T03:53:23.628Z,6.47
2022-11-23T03:55:51.921Z,5.97
2022-11-23T03:58:22.979Z,5.95
2022-11-23T04:00:51.339Z,5.90
2022-11-23T04:03:22.661Z,5.68
2022-11-23T04:06:00.741Z,5.40
2022-11-23T04:08:31.302Z,5.20
2022-11-23T04:11:05.023Z,5.50
2022-11-23T04:13:36.106Z,5.20
2022-11-23T04:16:16.226Z,5.03
2022-11-23T04:18:44.736Z,5.53
2022-11-23T04:21:18.191Z,5.60
2022-11-23T04:23:46.633Z,5.45
2022-11-23T04:26:18.258Z,5.28
2022-11-23T04:28:48.749Z,5.03
2022-11-23T04:31:20.133Z,4.80
2022-11-23T04:34:04.361Z,5.50
2022-11-23T04:36:34.709Z,4.82
2022-11-23T04:39:11.137Z,5.00
2022-11-23T04:41:45.001Z,4.82
2022-11-23T04:44:15.161Z,4.53
2022-11-23T04:46:57.439Z,5.10
2022-11-23T04:49:36.462Z,4.55
2022-11-23T04:52:07.515Z,4.80
2022-11-23T04:54:38.323Z,4.30
2022-11-23T04:57:14.336Z,4.85
2022-11-23T04:59:59.126Z,5.25
2022-11-23T05:02:32.390Z,4.60
2022-11-23T05:05:03.555Z,4.80
2022-11-23T05:07:32.304Z,4.75
2022-11-23T05:10:07.072Z,4.80
2022-11-23T05:15:16.745Z,4.70
2022-11-23T05:18:11.465Z,4.78
2022-11-23T05:20:42.670Z,5.00
2022-11-23T05:23:29.712Z,4.43
2022-11-23T05:26:14.731Z,4.80
2022-11-23T05:31:18.186Z,4.95
2022-11-23T05:33:52.420Z,5.18
2022-11-23T05:36:20.839Z,4.60
2022-11-23T05:38:51.796Z,5.20
2022-11-23T05:41:27.301Z,5.15
2022-11-23T05:44:04.562Z,5.03
2022-11-23T05:46:32.899Z,4.70
2022-11-23T05:49:03.903Z,4.57
2022-11-23T05:51:36.270Z,4.60
2022-11-23T05:54:16.270Z,4.30
2022-11-23T05:56:47.260Z,4.65
2022-11-23T05:59:18.294Z,4.70
2022-11-23T06:01:49.323Z,4.13
2022-11-23T06:04:20.705Z,4.53
2022-11-23T06:06:53.304Z,4.85
2022-11-23T06:09:22.187Z,4.57
2022-11-23T06:14:37.777Z,4.38
2022-11-23T06:17:08.336Z,4.65
2022-11-23T06:19:40.988Z,4.65
2022-11-23T06:22:10.631Z,4.70
2022-11-23T06:24:38.945Z,4.40
2022-11-23T06:27:16.621Z,4.30
2022-11-23T06:29:48.405Z,4.60
2022-11-23T06:32:24.575Z,4.50
2022-11-23T06:35:00.635Z,5.15
2022-11-23T06:37:29.480Z,4.65
2022-11-23T06:40:07.430Z,4.82
2022-11-23T06:42:40.671Z,5.30
2022-11-23T06:45:15.023Z,4.93
2022-11-23T06:47:44.055Z,5.07
2022-11-23T06:50:18.996Z,4.88
2022-11-23T06:52:47.460Z,5.07
2022-11-23T06:55:21.136Z,4.95
2022-11-23T06:57:57.505Z,4.93
2022-11-23T07:00:30.872Z,5.55
2022-11-23T07:03:06.527Z,5.00
2022-11-23T07:05:41.977Z,4.68
2022-11-23T07:08:19.270Z,4.40
2022-11-23T07:10:56.170Z,5.10
2022-11-23T07:13:26.462Z,4.55
2022-11-23T07:16:01.716Z,5.47
2022-11-23T07:18:30.818Z,4.72
2022-11-23T07:21:05.101Z,5.32
2022-11-23T07:23:37.801Z,4.95
2022-11-23T07:26:08.780Z,5.20
2022-11-23T07:28:39.495Z,5.00
2022-11-23T07:31:08.101Z,5.00
2022-11-23T07:33:36.551Z,5.03
2022-11-23T07:36:17.941Z,5.45
2022-11-23T07:38:51.916Z,5.50
2022-11-23T07:41:29.755Z,5.15
2022-11-23T07:44:05.307Z,5.18
2022-11-23T07:46:46.002Z,5.45
2022-11-23T07:49:21.711Z,5.55
2022-11-23T07:51:55.047Z,5.45
2022-11-23T07:54:46.433Z,5.30
2022-11-23T07:57:25.735Z,5.63
2022-11-23T07:59:57.131Z,5.30
2022-11-23T08:02:36.463Z,5.38
2022-11-23T08:05:13.871Z,4.97
2022-11-23T08:07:46.049Z,5.40
2022-11-23T08:10:17.847Z,5.13
2022-11-23T08:12:51.870Z,5.05
2022-11-23T08:15:27.453Z,5.57
2022-11-23T08:18:23.491Z,5.93
2022-11-23T08:20:56.593Z,5.38
2022-11-23T08:23:26.672Z,5.90
2022-11-23T08:26:02.180Z,5.80
2022-11-23T08:28:46.881Z,5.85
2022-11-23T08:31:29.646Z,5.32
2022-11-23T08:34:05.873Z,5.50
2022-11-23T08:36:47.716Z,5.18
2022-11-23T08:39:26.950Z,5.40
2022-11-23T08:41:57.850Z,5.47
2022-11-23T08:44:26.205Z,5.07
2022-11-23T08:46:56.527Z,5.25
2022-11-23T08:49:29.861Z,5.00
2022-11-23T08:52:04.098Z,5.47
2022-11-23T08:54:38.756Z,5.28
2022-11-23T08:59:41.903Z,5.40
2022-11-23T09:02:22.640Z,5.15
2022-11-23T09:04:55.065Z,5.20
2022-11-23T09:07:26.410Z,5.75
2022-11-23T09:10:02.598Z,5.50
2022-11-23T09:12:34.181Z,5.82
2022-11-23T09:15:02.519Z,5.30
2022-11-23T09:17:38.164Z,5.40
2022-11-23T09:20:10.984Z,5.70
2022-11-23T09:23:07.954Z,5.20
2022-11-23T09:25:39.291Z,5.35
2022-11-23T09:28:27.489Z,5.15
2022-11-23T09:31:17.397Z,4.95
2022-11-23T09:33:53.965Z,5.40
2022-11-23T09:36:27.618Z,5.28
2022-11-23T09:38:59.936Z,5.20
2022-11-23T09:41:55.051Z,5.03
2022-11-23T09:44:53.225Z,5.35
2022-11-23T09:47:47.786Z,5.43
2022-11-23T09:50:50.875Z,5.17
2022-11-23T09:53:51.630Z,5.43
2022-11-23T09:57:01.252Z,4.78
2022-11-23T09:59:48.741Z,5.45
2022-11-23T10:02:43.151Z,5.22
2022-11-23T10:05:28.461Z,5.10
2022-11-23T10:09:12.449Z,5.47
2022-11-23T10:11:49.956Z,5.07
2022-11-23T10:14:34.598Z,5.45
2022-11-23T10:17:33.902Z,4.90
2022-11-23T10:20:37.019Z,5.10
2022-11-23T10:23:17.157Z,5.20
2022-11-23T10:25:57.656Z,5.25
2022-11-23T10:28:37.486Z,5.20
2022-11-23T10:31:19.347Z,5.40
2022-11-23T10:34:17.381Z,4.80
2022-11-23T10:36:53.537Z,5.15
2022-11-23T10:39:40.722Z,5.40
2022-11-23T10:42:30.975Z,5.28
2022-11-23T10:45:09.661Z,5.28
2022-11-23T10:48:00.367Z,5.10
2022-11-23T10:50:38.645Z,4.88
2022-11-23T10:53:30.028Z,4.47
2022-11-23T10:56:12.403Z,5.30
2022-11-23T10:58:53.069Z,4.93
2022-11-23T11:01:30.600Z,4.75
2022-11-23T11:04:11.145Z,4.93
2022-11-23T11:06:46.047Z,5.13
2022-11-23T11:09:37.091Z,5.03
2022-11-23T11:12:20.580Z,4.85
2022-11-23T11:16:28.359Z,5.05
2022-11-23T11:18:23.460Z,4.60
2022-11-23T11:21:05.715Z,4.97
2022-11-23T11:23:43.311Z,4.90
2022-11-23T11:26:39.543Z,4.68
2022-11-23T11:29:27.591Z,4.90
2022-11-23T11:32:07.939Z,4.97
2022-11-23T11:36:15.284Z,4.25
2022-11-23T11:37:53.858Z,4.35
2022-11-23T11:41:08.656Z,4.60
2022-11-23T11:43:50.661Z,4.70
2022-11-23T11:46:32.981Z,4.38
2022-11-23T11:49:18.175Z,4.35
2022-11-23T11:54:37.072Z,4.50
2022-11-23T11:57:25.238Z,4.45
2022-11-23T12:00:16.910Z,4.32
2022-11-23T12:02:58.716Z,4.30
2022-11-23T12:05:43.021Z,4.20
2022-11-23T12:08:22.818Z,4.53
2022-11-23T12:11:04.396Z,4.50
2022-11-23T12:13:50.219Z,4.63
2022-11-23T12:17:24.940Z,4.68
2022-11-23T12:20:24.109Z,4.30
2022-11-23T12:23:31.783Z,4.53
2022-11-23T12:26:25.541Z,4.65
2022-11-23T12:29:22.977Z,4.50
2022-11-23T12:32:30.457Z,4.40
2022-11-23T12:35:28.951Z,4.20
2022-11-23T12:38:06.505Z,4.40
2022-11-23T12:41:09.933Z,4.20
2022-11-23T12:47:19.960Z,4.15
2022-11-23T12:50:17.499Z,4.35
2022-11-23T12:53:23.186Z,4.20
2022-11-23T12:56:38.354Z,4.05
2022-11-23T12:59:17.462Z,4.05
2022-11-23T13:02:00.940Z,4.65
2022-11-23T13:05:03.627Z,4.07
2022-11-23T13:07:37.534Z,4.15
2022-11-23T13:11:00.255Z,3.80
2022-11-23T13:13:54.164Z,4.30
2022-11-23T13:17:03.886Z,4.15
2022-11-23T13:20:11.937Z,4.05
2022-11-23T13:22:54.831Z,3.90
2022-11-23T13:25:38.357Z,3.92
2022-11-23T13:31:44.541Z,3.90
2022-11-23T13:35:00.534Z,3.60
2022-11-23T13:37:36.826Z,3.70
2022-11-23T13:40:31.620Z,3.50
2022-11-23T13:43:13.189Z,3.33
2022-11-23T13:46:21.899Z,3.58
2022-11-23T13:49:11.221Z,3.95
2022-11-23T13:51:51.748Z,3.70
2022-11-23T13:54:37.156Z,3.70
2022-11-23T13:57:43.069Z,3.50
2022-11-23T14:03:49.842Z,3.15
2022-11-23T14:06:29.759Z,3.65
2022-11-23T14:09:31.577Z,3.40
2022-11-23T14:12:08.385Z,3.42
2022-11-23T14:15:12.920Z,3.35
2022-11-23T14:18:18.521Z,3.50
2022-11-23T14:21:33.751Z,3.40
2022-11-23T14:24:33.975Z,3.55
2022-11-23T14:27:50.905Z,3.70
2022-11-23T14:31:00.061Z,3.50
2022-11-23T14:34:44.763Z,3.50
2022-11-23T14:37:51.497Z,3.05
2022-11-23T14:43:25.810Z,3.70
2022-11-23T14:46:10.567Z,3.30
2022-11-23T14:48:43.841Z,3.80
2022-11-23T14:51:27.960Z,3.67
2022-11-23T14:54:29.893Z,3.67
2022-11-23T14:57:34.456Z,3.63
2022-11-23T15:00:33.059Z,3.88
2022-11-23T15:06:30.232Z,3.58
2022-11-23T15:10:03.260Z,3.63
2022-11-23T15:13:01.269Z,3.70
2022-11-23T15:15:40.384Z,3.60
2022-11-23T15:18:39.892Z,3.80
2022-11-23T15:21:15.810Z,3.45
2022-11-23T15:24:01.747Z,3.70
2022-11-23T15:27:56.709Z,3.88
2022-11-23T15:31:17.413Z,3.72
2022-11-23T15:33:13.614Z,3.88
2022-11-23T15:35:45.222Z,3.70
2022-11-23T15:38:51.447Z,3.70
2022-11-23T15:41:42.528Z,3.65
2022-11-23T15:44:44.968Z,3.50
2022-11-23T15:47:34.501Z,3.50
2022-11-23T15:50:37.028Z,3.60
2022-11-23T15:53:17.812Z,3.80
2022-11-23T15:56:42.642Z,3.72
2022-11-23T15:59:45.042Z,3.92
2022-11-23T16:02:44.415Z,3.92
2022-11-23T16:05:51.783Z,4.47
2022-11-23T16:08:48.649Z,4.47
2022-11-23T16:11:26.803Z,4.28
2022-11-23T16:14:30.509Z,4.30
2022-11-23T16:17:40.683Z,4.50
2022-11-23T16:20:34.685Z,4.43
2022-11-23T16:23:19.622Z,4.50
2022-11-23T16:26:14.968Z,4.63
2022-11-23T16:29:03.056Z,4.60
2022-11-23T16:31:49.619Z,4.53
2022-11-23T16:34:34.360Z,4.80
2022-11-23T16:37:28.363Z,4.88
2022-11-23T16:40:01.264Z,4.93
2022-11-23T16:42:48.442Z,4.50
2022-11-23T16:45:19.921Z,5.20
2022-11-23T16:48:09.697Z,5.20
2022-11-23T16:51:05.781Z,5.45
2022-11-23T16:54:08.214Z,6.13
2022-11-23T16:56:37.090Z,5.72
2022-11-23T16:59:13.319Z,6.47
2022-11-23T17:01:56.881Z,6.07
2022-11-23T17:04:35.659Z,6.60
2022-11-23T17:07:16.505Z,5.95
2022-11-23T17:10:00.445Z,6.10
2022-11-23T17:12:39.848Z,5.95
2022-11-23T17:15:53.065Z,6.05
2022-11-23T17:18:25.485Z,6.35
2022-11-23T17:21:06.356Z,6.15
2022-11-23T17:23:40.795Z,6.25
2022-11-23T17:26:24.518Z,6.18
2022-11-23T17:29:13.182Z,6.45
2022-11-23T17:31:47.098Z,6.40
2022-11-23T17:34:42.336Z,6.68
2022-11-23T17:37:31.461Z,6.38
2022-11-23T17:40:03.151Z,6.40
2022-11-23T17:42:34.407Z,6.32
2022-11-23T17:45:09.327Z,6.45
2022-11-23T17:47:53.007Z,7.07
2022-11-23T17:50:25.154Z,6.78
2022-11-23T17:52:53.535Z,7.07
2022-11-23T17:55:24.407Z,7.22
2022-11-23T17:57:57.861Z,7.47
2022-11-23T18:00:33.109Z,6.78
2022-11-23T18:03:04.746Z,7.38
2022-11-23T18:05:41.845Z,7.50
2022-11-23T18:08:10.847Z,7.05
2022-11-23T18:10:40.868Z,7.15
2022-11-23T18:13:31.111Z,7.40
2022-11-23T18:16:02.541Z,7.38
2022-11-23T18:18:36.901Z,7.03
2022-11-23T18:23:49.708Z,7.32
2022-11-23T18:26:27.942Z,6.60
2022-11-23T18:28:59.110Z,6.28
2022-11-23T18:31:32.190Z,6.10
2022-11-23T18:34:06.142Z,5.95
2022-11-23T18:36:34.628Z,5.13
2022-11-23T18:39:13.176Z,5.45
2022-11-23T18:41:47.555Z,4.78
2022-11-23T18:44:18.971Z,4.65
2022-11-23T18:46:51.135Z,4.70
2022-11-23T18:49:28.029Z,5.05
2022-11-23T18:52:02.157Z,4.75
2022-11-23T18:54:35.919Z,4.65
2022-11-23T18:57:04.256Z,5.07
2022-11-23T18:59:57.013Z,5.10
2022-11-23T19:02:30.817Z,4.75
2022-11-23T19:05:01.842Z,4.60
2022-11-23T19:07:30.490Z,4.82
2022-11-23T19:10:04.247Z,4.75
2022-11-23T19:12:35.731Z,5.20
2022-11-23T19:15:10.454Z,4.93
2022-11-23T19:17:53.344Z,4.38
2022-11-23T19:20:28.515Z,4.38
2022-11-23T19:22:57.630Z,4.35
2022-11-23T19:25:32.512Z,4.20
2022-11-23T19:28:02.189Z,4.75
2022-11-23T19:30:33.061Z,4.93
2022-11-23T19:33:04.320Z,4.82
2022-11-23T19:35:40.149Z,4.35
2022-11-23T19:38:17.674Z,4.40
2022-11-23T19:40:54.669Z,4.03
2022-11-23T19:43:25.667Z,4.47
2022-11-23T19:46:01.245Z,4.47
2022-11-23T19:48:36.975Z,4.15
2022-11-23T19:51:12.276Z,4.18
2022-11-23T19:53:44.031Z,3.53
2022-11-23T19:56:21.047Z,3.80
2022-11-23T19:58:53.084Z,3.65
2022-11-23T20:01:31.929Z,3.65
2022-11-23T20:04:10.020Z,3.72
2022-11-23T20:06:43.142Z,3.95
2022-11-23T20:09:22.000Z,3.80
2022-11-23T20:11:51.466Z,4.05
2022-11-23T20:14:20.845Z,3.80
2022-11-23T20:16:51.608Z,3.70
2022-11-23T20:19:19.945Z,3.53
2022-11-23T20:21:51.549Z,3.55
2022-11-23T20:24:24.567Z,3.45
2022-11-23T20:26:55.985Z,3.45
2022-11-23T20:29:27.072Z,3.65
2022-11-23T20:31:57.925Z,4.07
2022-11-23T20:34:28.708Z,3.90
2022-11-23T20:36:57.066Z,3.75
2022-11-23T20:39:27.836Z,4.20
2022-11-23T20:41:56.201Z,3.70
2022-11-23T20:44:32.297Z,3.13
2022-11-23T20:47:03.267Z,3.30
2022-11-23T20:49:34.578Z,3.55
2022-11-23T20:52:03.174Z,3.35
2022-11-23T20:54:33.013Z,3.28
2022-11-23T20:57:03.683Z,3.50
2022-11-23T20:59:33.790Z,2.95
2022-11-23T21:02:06.627Z,2.97
2022-11-23T21:04:36.995Z,3.08
2022-11-23T21:07:05.587Z,3.00
2022-11-23T21:09:36.982Z,3.13
2022-11-23T21:12:24.674Z,2.90
2022-11-23T21:14:54.021Z,2.60
2022-11-23T21:17:22.346Z,2.72
2022-11-23T21:19:51.870Z,2.97
2022-11-23T21:22:20.257Z,2.60
2022-11-23T21:24:53.396Z,2.53
2022-11-23T21:27:25.829Z,2.40
2022-11-23T21:29:54.286Z,2.22
2022-11-23T21:32:22.940Z,2.20
2022-11-23T21:34:59.674Z,2.20
2022-11-23T21:37:33.672Z,2.30
2022-11-23T21:40:02.127Z,2.60
2022-11-23T21:42:35.658Z,1.90
2022-11-23T21:45:07.645Z,2.10
2022-11-23T21:47:36.460Z,2.17
2022-11-23T21:50:04.888Z,1.95
2022-11-23T21:52:33.172Z,2.20
2022-11-23T21:55:02.997Z,2.20
2022-11-23T21:57:35.819Z,2.22
2022-11-23T22:00:04.855Z,2.10
2022-11-23T22:02:35.532Z,2.08
2022-11-23T22:05:09.550Z,2.10
2022-11-23T22:07:37.964Z,2.13
2022-11-23T22:10:10.776Z,2.08
2022-11-23T22:12:39.839Z,2.05
2022-11-23T22:15:11.191Z,1.90
2022-11-23T22:17:44.381Z,1.80
2022-11-23T22:20:14.646Z,2.00
2022-11-23T22:22:49.352Z,1.90
2022-11-23T22:25:17.847Z,1.98
2022-11-23T22:27:46.180Z,1.88
2022-11-23T22:30:16.419Z,1.98
2022-11-23T22:32:44.896Z,1.90
2022-11-23T22:35:19.245Z,1.92
2022-11-23T22:37:48.419Z,1.88
2022-11-23T22:40:17.387Z,2.10
2022-11-23T22:42:45.668Z,2.20
2022-11-23T22:45:16.902Z,1.70
2022-11-23T22:47:45.245Z,1.88
2022-11-23T22:50:13.771Z,2.22
2022-11-23T22:52:42.047Z,2.10
2022-11-23T22:55:10.796Z,2.15
2022-11-23T22:57:39.727Z,2.13
2022-11-23T23:00:11.759Z,2.05
2022-11-23T23:02:40.242Z,2.00
2022-11-23T23:05:09.044Z,1.80
2022-11-23T23:07:37.447Z,2.10
2022-11-23T23:10:06.046Z,2.10
2022-11-23T23:12:37.126Z,2.30
2022-11-23T23:15:14.826Z,2.30
2022-11-23T23:17:43.150Z,2.47
2022-11-23T23:20:13.023Z,2.22
2022-11-23T23:22:43.666Z,2.22
2022-11-23T23:25:15.466Z,2.45
2022-11-23T23:27:43.996Z,2.05
2022-11-23T23:30:18.179Z,2.10
2022-11-23T23:32:49.063Z,2.20
2022-11-23T23:35:17.385Z,2.17
2022-11-23T23:37:45.671Z,2.20
2022-11-23T23:40:14.018Z,2.30
2022-11-23T23:42:42.280Z,1.95
2022-11-23T23:45:11.284Z,2.20
2022-11-23T23:47:44.470Z,2.10
2022-11-23T23:50:12.756Z,2.10
2022-11-23T23:52:41.595Z,2.00
2022-11-23T23:55:13.171Z,2.10
2022-11-23T23:57:44.589Z,1.70
